Terminal Aerodrome Forecast
Issued by NWS Upton, NY

Home | Current Version | Previous Version | Text Only | Print | Product List | Glossary On
Versions: 1 2 3 4 5 6 7 8 9 10 11 12 13 14 15 16 17 18 19 20 21 22 23 24 25 26 27 28 29 30 31 32
000
FTUS41 KOKX 282342
TAFISP
TAF
KISP 282342Z 2900/2924 20010KT P6SM FEW009 SCT025 BKN050
      TEMPO 2900/2901 36007KT
     FM290100 23004KT P6SM FEW100 BKN250
     FM290500 VRB05KT P6SM SKC
     FM291800 17009KT P6SM FEW050=

USA.gov is the U.S. government's official web portal to all federal, state and local government web resources and services.